Time;durP1;ratioP1;P1;durP2;ratioP2;P2;SDS_P1;SDS_P2;PMS_P1;PMS_P2;Temp;Humidity;BMP_temperature;BMP_pressure;BME280_temperature;BME280_humidity;BME280_pressure;Samples;Min_cycle;Max_cycle;Signal;HPM_P1;HPM_P2
2022/05/20 00:00:32;;;;;;;;;2.00;2.00;;;;;19.16;100.00;101632.78;6250271;22;46929;-88
2022/05/20 00:02:57;;;;;;;;;3.40;3.00;;;;;19.19;100.00;101619.88;6277751;22;45126;-86
2022/05/20 00:05:24;;;;;;;;;6.25;6.25;;;;;19.25;100.00;101629.28;6251419;22;45210;-88
2022/05/20 00:07:51;;;;;;;;;2.00;2.00;;;;;19.20;100.00;101616.22;6291540;22;44764;-89
2022/05/20 00:10:18;;;;;;;;;2.40;2.40;;;;;19.20;100.00;101618.06;6296789;22;45068;-87
2022/05/20 00:12:45;;;;;;;;;2.20;1.60;;;;;19.17;100.00;101616.47;6295534;22;44611;-88
2022/05/20 00:15:14;;;;;;;;;2.60;1.00;;;;;19.16;100.00;101622.84;6292327;22;44650;-87
2022/05/20 00:17:40;;;;;;;;;1.40;1.40;;;;;19.15;100.00;101607.69;6297822;22;44814;-88
2022/05/20 00:20:07;;;;;;;;;5.80;5.40;;;;;19.14;100.00;101605.97;6299684;22;45310;-87
2022/05/20 00:22:33;;;;;;;;;3.00;2.60;;;;;19.18;100.00;101596.63;6297854;22;44546;-88
2022/05/20 00:27:43;;;;;;;;;2.40;1.60;;;;;19.25;100.00;101608.56;6297473;22;44644;-87
2022/05/20 00:30:10;;;;;;;;;1.50;1.50;;;;;19.29;100.00;101597.50;6271752;22;46544;-89
2022/05/20 00:32:35;;;;;;;;;1.60;1.60;;;;;19.30;100.00;101591.13;6267917;22;45112;-87
2022/05/20 00:35:02;;;;;;;;;2.00;2.00;;;;;19.29;100.00;101601.03;6298064;22;44723;-88
2022/05/20 00:37:28;;;;;;;;;2.00;1.40;;;;;19.30;100.00;101604.63;6294634;22;44746;-89
2022/05/20 00:39:53;;;;;;;;;3.00;2.00;;;;;19.32;100.00;101605.31;6291761;22;46187;-87
2022/05/20 00:42:20;;;;;;;;;2.50;2.00;;;;;19.34;100.00;101601.50;6298830;22;44670;-88
2022/05/20 00:44:47;;;;;;;;;7.20;7.20;;;;;19.33;100.00;101593.53;6272704;22;44724;-86
2022/05/20 00:47:14;;;;;;;;;5.60;4.80;;;;;19.31;100.00;101603.63;6298459;22;44776;-87
2022/05/20 00:49:44;;;;;;;;;1.40;1.40;;;;;19.20;100.00;101607.28;6301830;22;45049;-87
2022/05/20 00:52:13;;;;;;;;;2.20;2.20;;;;;19.14;100.00;101594.34;6305140;22;44746;-88
2022/05/20 00:54:43;;;;;;;;;2.20;2.20;;;;;19.14;100.00;101592.50;6278127;22;44727;-88
2022/05/20 00:57:17;;;;;;;;;2.80;2.00;;;;;19.13;100.00;101587.25;6278462;22;44794;-88
2022/05/20 00:59:50;;;;;;;;;2.00;2.00;;;;;19.13;100.00;101587.25;6263540;22;46089;-88
2022/05/20 01:02:20;;;;;;;;;16.20;14.20;;;;;19.12;100.00;101599.88;6242871;22;44638;-86
2022/05/20 01:04:47;;;;;;;;;4.80;4.40;;;;;19.15;100.00;101594.22;6235667;22;44684;-88
2022/05/20 01:07:17;;;;;;;;;3.00;1.80;;;;;19.15;100.00;101596.91;6235877;22;45442;-89
2022/05/20 01:09:47;;;;;;;;;2.00;2.00;;;;;19.19;100.00;101595.63;6264035;22;45210;-88
2022/05/20 01:12:13;;;;;;;;;5.80;1.00;;;;;19.23;100.00;101582.75;6269513;22;44665;-88
2022/05/20 01:14:38;;;;;;;;;1.75;1.75;;;;;19.18;100.00;101583.16;6297059;22;44685;-87
2022/05/20 01:17:06;;;;;;;;;59.50;49.00;;;;;19.12;100.00;101578.31;6293162;22;44940;-88
2022/05/20 01:20:05;;;;;;;;;18.80;14.40;;;;;19.06;100.00;101554.63;6240622;22;45708;-89
2022/05/20 01:22:40;;;;;;;;;1.00;1.00;;;;;19.07;100.00;101552.78;6269290;22;44724;-88
2022/05/20 01:25:08;;;;;;;;;1.80;1.80;;;;;19.02;100.00;101552.34;6289635;22;45192;-88
2022/05/20 01:27:36;;;;;;;;;1.00;1.00;;;;;18.96;100.00;101561.84;6287107;22;45069;-87
2022/05/20 01:30:05;;;;;;;;;4.00;2.80;;;;;18.92;100.00;101560.41;6259655;22;45413;-88
2022/05/20 01:32:30;;;;;;;;;1.00;1.00;;;;;18.89;100.00;101545.34;6283820;22;44731;-86
2022/05/20 01:34:56;;;;;;;;;7.50;7.50;;;;;18.87;100.00;101544.66;6280515;22;45246;-87
2022/05/20 01:37:22;;;;;;;;;7.00;7.00;;;;;18.87;100.00;101536.59;6257080;22;45295;-87
2022/05/20 01:39:47;;;;;;;;;2.00;2.00;;;;;18.86;100.00;101534.03;6281485;22;46742;-86
2022/05/20 01:42:25;;;;;;;;;1.00;1.00;;;;;18.85;100.00;101529.63;6285739;22;44713;-88
2022/05/20 01:45:15;;;;;;;;;1.80;1.80;;;;;18.86;100.00;101532.19;6237190;22;45174;-89
2022/05/20 01:47:55;;;;;;;;;1.00;1.00;;;;;18.81;100.00;101518.28;6288108;22;44880;-87
2022/05/20 01:50:26;;;;;;;;;2.60;1.00;;;;;18.82;100.00;101521.84;6261805;22;46797;-87
2022/05/20 01:53:19;;;;;;;;;2.00;2.00;;;;;18.77;100.00;101518.69;6297582;22;44828;-85
2022/05/20 01:56:36;;;;;;;;;1.60;1.60;;;;;18.73;100.00;101512.72;6304952;22;44867;-88
2022/05/20 01:59:24;;;;;;;;;1.80;1.80;;;;;18.73;100.00;101518.13;6302110;22;44664;-86
2022/05/20 02:02:31;;;;;;;;;3.80;2.00;;;;;18.69;100.00;101509.44;6277931;22;45671;-87
2022/05/20 02:05:13;;;;;;;;;1.80;1.00;;;;;18.68;100.00;101513.13;6278368;22;44757;-86
2022/05/20 02:07:44;;;;;;;;;1.00;1.00;;;;;18.66;100.00;101507.03;6278356;22;44710;-86
2022/05/20 02:10:25;;;;;;;;;1.00;1.00;;;;;18.63;100.00;101498.34;6305261;22;44667;-87
2022/05/20 02:12:55;;;;;;;;;3.00;3.00;;;;;18.64;100.00;101492.81;6268828;22;45160;-88
2022/05/20 02:15:32;;;;;;;;;7.80;2.80;;;;;18.63;100.00;101496.50;6263424;22;44787;-87
2022/05/20 02:18:03;;;;;;;;;1.40;1.40;;;;;18.56;100.00;101494.50;6293436;22;44764;-88
2022/05/20 02:20:47;;;;;;;;;2.00;2.00;;;;;18.53;100.00;101487.56;6292047;22;44765;-89
2022/05/20 02:23:18;;;;;;;;;4.00;2.60;;;;;18.58;100.00;101489.84;6269636;22;45273;-84
2022/05/20 02:25:52;;;;;;;;;2.60;2.60;;;;;18.59;100.00;101478.94;6285749;22;44659;-84
2022/05/20 02:28:22;;;;;;;;;1.00;1.00;;;;;18.61;100.00;101478.78;6292684;22;44661;-83
2022/05/20 02:30:49;;;;;;;;;3.40;2.60;;;;;18.60;100.00;101482.47;6288103;22;44769;-84
2022/05/20 02:33:21;;;;;;;;;3.20;2.40;;;;;18.60;100.00;101482.47;6294702;22;45400;-85
2022/05/20 02:35:47;;;;;;;;;3.80;3.00;;;;;18.60;100.00;101480.63;6285105;22;45076;-84
2022/05/20 02:38:17;;;;;;;;;12.75;12.75;;;;;18.63;100.00;101480.38;6284159;22;44732;-84
2022/05/20 02:40:46;;;;;;;;;3.60;3.20;;;;;18.65;100.00;101480.22;6254290;22;45251;-84
2022/05/20 02:43:12;;;;;;;;;3.00;3.00;;;;;18.65;100.00;101483.75;6253335;22;46887;-84
2022/05/20 02:45:43;;;;;;;;;3.00;3.00;;;;;18.64;100.00;101475.81;6258555;22;44717;-83
2022/05/20 02:48:09;;;;;;;;;1.80;1.80;;;;;18.64;100.00;101478.53;6286212;22;45259;-82
2022/05/20 02:50:34;;;;;;;;;14.25;14.25;;;;;18.61;100.00;101474.25;6254870;22;44901;-84
2022/05/20 02:53:00;;;;;;;;;8.50;6.25;;;;;18.63;100.00;101472.28;6259330;22;46622;-84
2022/05/20 02:55:26;;;;;;;;;2.75;1.00;;;;;18.61;100.00;101476.09;6292993;22;44635;-83
2022/05/20 02:57:51;;;;;;;;;3.00;2.00;;;;;18.62;100.00;101473.28;6286884;22;44594;-85
2022/05/20 03:05:45;;;;;;;;;7.20;6.20;;;;;18.68;100.00;101474.56;6276807;22;44773;-85
2022/05/20 03:08:11;;;;;;;;;17.50;14.50;;;;;18.64;100.00;101474.00;6273796;22;45175;-85
2022/05/20 03:10:37;;;;;;;;;8.50;8.25;;;;;18.68;100.00;101471.88;6275897;22;44547;-84
2022/05/20 03:13:06;;;;;;;;;5.50;5.50;;;;;18.75;100.00;101481.13;6275215;22;45076;-85
2022/05/20 03:15:32;;;;;;;;;12.40;10.00;;;;;18.78;100.00;101472.78;6276084;22;45404;-83
2022/05/20 03:17:58;;;;;;;;;6.20;4.00;;;;;18.74;100.00;101474.91;6279519;22;44716;-85
2022/05/20 03:20:24;;;;;;;;;5.60;3.60;;;;;18.70;100.00;101469.91;6251073;22;45215;-84
2022/05/20 03:22:50;;;;;;;;;1.75;1.75;;;;;18.64;100.00;101463.22;6279810;22;44854;-83
2022/05/20 03:25:16;;;;;;;;;18.50;13.50;;;;;18.61;100.00;101482.31;6282112;22;45271;-84
2022/05/20 03:27:41;;;;;;;;;10.00;9.00;;;;;18.60;100.00;101472.56;6289551;22;44665;-85
2022/05/20 03:30:10;;;;;;;;;3.50;3.50;;;;;18.60;100.00;101469.84;6302810;22;44872;-86
2022/05/20 03:32:35;;;;;;;;;4.60;3.20;;;;;18.58;100.00;101466.47;6319051;22;45598;-84
2022/05/20 03:35:01;;;;;;;;;2.25;0.75;;;;;18.56;100.00;101465.72;6314317;22;45146;-83
2022/05/20 03:37:26;;;;;;;;;2.50;2.50;;;;;18.56;100.00;101462.19;6285169;22;44898;-85
2022/05/20 03:39:53;;;;;;;;;3.75;3.25;;;;;18.51;100.00;101446.47;6318985;22;44744;-83
2022/05/20 03:42:19;;;;;;;;;2.00;2.00;;;;;18.52;100.00;101458.94;6295337;22;45225;-83
2022/05/20 03:44:44;;;;;;;;;2.00;2.00;;;;;18.50;100.00;101461.75;6286701;22;44763;-85
2022/05/20 03:47:09;;;;;;;;;8.25;8.25;;;;;18.49;100.00;101462.75;6309639;22;45150;-85
2022/05/20 03:49:35;;;;;;;;;5.25;4.00;;;;;18.45;100.00;101455.94;6281797;22;45278;-83
2022/05/20 03:52:00;;;;;;;;;3.75;3.00;;;;;18.42;100.00;101447.28;6279565;22;45359;-84
2022/05/20 03:54:32;;;;;;;;;2.25;2.25;;;;;18.41;100.00;101441.03;6307752;22;45269;-84
2022/05/20 03:56:58;;;;;;;;;4.00;2.80;;;;;18.39;100.00;101440.34;6307051;22;44818;-84
2022/05/20 03:59:23;;;;;;;;;4.00;4.00;;;;;18.45;100.00;101434.41;6306724;22;45119;-84
2022/05/20 04:01:58;;;;;;;;;3.75;3.00;;;;;18.47;100.00;101437.84;6310629;22;45124;-83
2022/05/20 04:04:24;;;;;;;;;9.40;7.40;;;;;18.46;100.00;101437.94;6312859;22;44585;-85
2022/05/20 04:06:49;;;;;;;;;6.50;5.00;;;;;18.43;100.00;101431.00;6282566;22;44577;-84
2022/05/20 04:09:15;;;;;;;;;5.00;5.00;;;;;18.47;100.00;101434.28;6306359;22;44866;-84
2022/05/20 04:11:41;;;;;;;;;5.75;4.25;;;;;18.48;100.00;101434.16;6308059;22;45119;-84
2022/05/20 04:14:06;;;;;;;;;7.20;3.00;;;;;18.47;100.00;101437.84;6309620;22;44653;-84
2022/05/20 04:16:32;;;;;;;;;5.00;4.00;;;;;18.44;100.00;101423.78;6314310;22;44565;-85
2022/05/20 04:18:57;;;;;;;;;5.50;5.50;;;;;18.42;100.00;101426.63;6321194;22;44757;-85
2022/05/20 04:21:23;;;;;;;;;4.50;2.50;;;;;18.43;100.00;101432.84;6283652;22;46357;-85
2022/05/20 04:23:49;;;;;;;;;3.00;3.00;;;;;18.42;100.00;101426.63;6310333;22;45012;-85
2022/05/20 04:26:15;;;;;;;;;2.00;2.00;;;;;18.46;100.00;101427.19;6311318;22;45345;-85
2022/05/20 04:28:40;;;;;;;;;4.20;3.00;;;;;18.55;100.00;101439.81;6315765;22;45332;-85
2022/05/20 04:31:08;;;;;;;;;4.50;4.50;;;;;18.67;100.00;101446.81;6285906;22;45384;-84
2022/05/20 04:33:33;;;;;;;;;4.00;4.00;;;;;18.75;100.00;101443.44;6282700;22;45231;-83
2022/05/20 04:36:00;;;;;;;;;3.00;3.00;;;;;18.84;100.00;101437.22;6279942;22;45343;-84
2022/05/20 04:38:25;;;;;;;;;4.40;3.00;;;;;18.94;100.00;101454.25;6308451;22;44705;-85
2022/05/20 04:49:09;;;;;;;;;5.40;3.60;;;;;19.25;100.00;101452.31;6312381;22;44689;-87
2022/05/20 04:51:35;;;;;;;;;4.00;4.00;;;;;19.29;100.00;101452.84;6316755;22;45296;-86
2022/05/20 04:56:45;;;;;;;;;3.00;3.00;;;;;19.58;100.00;101471.72;6310270;22;44625;-86
2022/05/20 04:59:11;;;;;;;;;3.00;2.50;;;;;19.70;100.00;101475.16;6312613;22;44747;-86
2022/05/20 05:01:36;;;;;;;;;3.00;3.00;;;;;19.78;100.00;101472.59;6283587;22;45562;-83
2022/05/20 05:04:02;;;;;;;;;3.75;3.75;;;;;19.83;100.00;101472.16;6292019;22;45640;-83
2022/05/20 05:06:27;;;;;;;;;16.75;10.25;;;;;19.86;100.00;101471.84;6293300;22;45219;-85
2022/05/20 05:08:53;;;;;;;;;3.25;3.25;;;;;19.89;100.00;101472.41;6312378;22;45421;-84
2022/05/20 05:11:20;;;;;;;;;4.60;3.60;;;;;19.77;100.00;101481.66;6313260;22;45361;-85
2022/05/20 05:13:45;;;;;;;;;4.40;4.40;;;;;19.73;100.00;101482.97;6314970;22;44761;-86
2022/05/20 05:16:11;;;;;;;;;1.25;1.25;;;;;19.73;100.00;101483.81;6312846;22;44654;-85
2022/05/20 05:18:37;;;;;;;;;3.00;3.00;;;;;19.73;100.00;101477.56;6281308;22;44848;-83
2022/05/20 05:21:03;;;;;;;;;7.75;5.00;;;;;19.69;100.00;101468.06;6283476;22;46533;-89
2022/05/20 05:23:28;;;;;;;;;5.00;4.60;;;;;19.68;100.00;101461.81;6310945;22;45151;-84
2022/05/20 05:25:54;;;;;;;;;4.50;3.00;;;;;19.60;100.00;101461.69;6310067;22;45492;-85
2022/05/20 05:28:20;;;;;;;;;4.75;3.50;;;;;19.54;100.00;101464.06;6309448;22;44760;-85
2022/05/20 05:30:48;;;;;;;;;3.00;3.00;;;;;19.53;100.00;101471.28;6313171;22;45202;-85
2022/05/20 05:33:14;;;;;;;;;7.60;5.00;;;;;19.54;100.00;101464.06;6316306;22;45094;-86
2022/05/20 05:35:39;;;;;;;;;6.00;5.00;;;;;19.56;100.00;101459.38;6319739;22;45302;-85
2022/05/20 05:38:05;;;;;;;;;4.25;3.00;;;;;19.57;100.00;101467.31;6319326;22;45111;-85
2022/05/20 05:40:35;;;;;;;;;4.75;3.50;;;;;19.56;100.00;101454.84;6307689;22;45124;-86
2022/05/20 05:43:02;;;;;;;;;4.80;4.80;;;;;19.52;100.00;101450.72;6308112;22;45360;-86
2022/05/20 05:45:30;;;;;;;;;3.00;3.00;;;;;19.48;100.00;101441.22;6307433;22;44858;-85
2022/05/20 05:47:59;;;;;;;;;5.40;5.40;;;;;19.47;100.00;101423.34;6307577;22;45284;-85
2022/05/20 05:50:25;;;;;;;;;8.20;6.40;;;;;19.45;100.00;101401.09;6314550;22;45281;-85
2022/05/20 05:52:59;;;;;;;;;3.60;2.80;;;;;19.38;100.00;101391.88;6311121;22;44648;-85
2022/05/20 05:55:26;;;;;;;;;5.00;3.40;;;;;19.17;100.00;101392.88;6306604;22;44818;-81
2022/05/20 05:57:51;;;;;;;;;4.40;4.40;;;;;19.06;100.00;101422.66;6305847;22;45183;-82
2022/05/20 06:00:17;;;;;;;;;3.75;3.25;;;;;18.92;100.00;101442.78;6307590;22;45371;-83
2022/05/20 06:02:43;;;;;;;;;3.00;3.00;;;;;18.92;100.00;101455.38;6313234;22;45308;-82
2022/05/20 06:05:08;;;;;;;;;3.50;3.50;;;;;18.92;100.00;101448.16;6309244;22;44693;-83
2022/05/20 06:07:33;;;;;;;;;8.25;5.50;;;;;18.92;100.00;101467.00;6306173;22;45495;-83
2022/05/20 06:09:59;;;;;;;;;6.25;6.00;;;;;18.91;100.00;101467.16;6306462;22;45385;-83
2022/05/20 06:12:24;;;;;;;;;6.25;4.50;;;;;18.89;100.00;101472.66;6278305;22;45242;-82
2022/05/20 06:14:49;;;;;;;;;3.75;3.25;;;;;18.87;100.00;101474.66;6307400;22;45302;-82
2022/05/20 06:17:16;;;;;;;;;5.75;4.50;;;;;18.86;100.00;101469.41;6276099;22;44931;-83
2022/05/20 06:19:42;;;;;;;;;6.60;4.60;;;;;18.79;100.00;101468.25;6305448;22;45369;-82
2022/05/20 06:22:08;;;;;;;;;8.25;4.50;;;;;18.73;100.00;101464.28;6305197;22;45238;-82
2022/05/20 06:24:33;;;;;;;;;4.00;4.00;;;;;18.67;100.00;101438.72;6309513;22;45317;-83
2022/05/20 06:26:59;;;;;;;;;9.75;6.25;;;;;18.66;100.00;101423.59;6311784;22;45458;-82
2022/05/20 06:29:25;;;;;;;;;5.25;4.50;;;;;18.63;100.00;101406.84;6306748;22;45484;-84
2022/05/20 06:31:50;;;;;;;;;6.00;5.00;;;;;18.59;100.00;101373.97;6309507;22;45431;-84
2022/05/20 06:34:15;;;;;;;;;6.75;5.75;;;;;18.58;100.00;101369.59;6319996;22;45291;-83
2022/05/20 06:39:49;;;;;;;;;5.40;5.40;;;;;18.45;100.00;101347.47;6311153;22;45211;-84
2022/05/20 06:42:10;;;;;;;;;9.60;8.20;;;;;18.35;100.00;101335.84;6312097;22;45399;-84
2022/05/20 06:44:35;;;;;;;;;8.75;6.25;;;;;18.30;100.00;101322.78;6306926;22;44847;-84
2022/05/20 06:47:00;;;;;;;;;6.25;6.25;;;;;18.29;100.00;101353.38;6306837;22;45369;-81
2022/05/20 06:49:26;;;;;;;;;8.50;6.25;;;;;18.26;100.00;101372.47;6286006;22;45323;-83
2022/05/20 06:51:54;;;;;;;;;7.25;6.25;;;;;18.22;100.00;101350.38;6308594;22;44761;-83
2022/05/20 06:54:20;;;;;;;;;8.00;7.00;;;;;18.26;100.00;101342.88;6307706;22;45242;-82
2022/05/20 06:56:46;;;;;;;;;8.75;7.25;;;;;18.22;100.00;101307.34;6278168;22;45248;-83
2022/05/20 06:59:11;;;;;;;;;6.25;6.25;;;;;18.26;100.00;101275.63;6306216;22;45107;-82
2022/05/20 07:01:37;;;;;;;;;8.25;8.25;;;;;18.27;100.00;101261.19;6306605;22;44727;-82
2022/05/20 07:04:03;;;;;;;;;8.25;8.00;;;;;18.35;100.00;101244.38;6310602;22;45166;-84
2022/05/20 07:06:32;;;;;;;;;8.25;6.75;;;;;18.50;100.00;101233.03;6310463;22;44831;-84
2022/05/20 07:08:58;;;;;;;;;8.80;7.00;;;;;18.66;100.00;101216.34;6310272;22;45285;-84
2022/05/20 07:11:25;;;;;;;;;7.80;7.60;;;;;18.75;100.00;101202.00;6311230;22;44652;-81
2022/05/20 07:13:55;;;;;;;;;9.00;7.60;;;;;18.91;100.00;101182.59;6290517;22;44622;-83
2022/05/20 07:16:22;;;;;;;;;9.25;7.50;;;;;19.05;100.00;101180.41;6309830;22;45554;-84
2022/05/20 07:18:47;;;;;;;;;7.20;7.20;;;;;19.19;100.00;101180.78;6310478;22;45277;-83
2022/05/20 07:21:13;;;;;;;;;10.00;8.25;;;;;19.35;100.00;101174.78;6308774;22;44792;-84
2022/05/20 07:23:38;;;;;;;;;8.75;8.75;;;;;19.49;100.00;101181.53;6313523;22;45307;-85
2022/05/20 07:26:04;;;;;;;;;13.50;9.25;;;;;19.62;100.00;101218.91;6320976;22;44737;-82
2022/05/20 07:28:30;;;;;;;;;9.50;9.50;;;;;19.64;100.00;101225.03;6319126;22;44861;-84
2022/05/20 07:30:56;;;;;;;;;11.00;10.20;;;;;19.67;100.00;101224.72;6316268;22;45214;-83
2022/05/20 07:33:22;;;;;;;;;9.75;9.75;;;;;19.73;100.00;101221.44;6317309;22;45070;-85
2022/05/20 07:35:47;;;;;;;;;11.25;9.25;;;;;19.84;100.00;101217.69;6317201;22;44856;-84
2022/05/20 07:38:13;;;;;;;;;13.00;8.50;;;;;19.98;100.00;101228.78;6321751;22;45130;-84
2022/05/20 07:40:39;;;;;;;;;8.40;7.80;;;;;20.11;100.00;101239.19;6321240;22;44823;-85
2022/05/20 07:43:05;;;;;;;;;10.00;9.00;;;;;20.14;100.00;101236.22;6320502;22;44779;-83
2022/05/20 07:45:32;;;;;;;;;8.25;8.25;;;;;20.13;100.00;101260.66;6315822;22;44789;-87
2022/05/20 07:47:58;;;;;;;;;10.40;8.80;;;;;20.01;100.00;101287.81;6267264;22;45188;-83
2022/05/20 07:50:23;;;;;;;;;10.75;9.75;;;;;19.87;100.00;101279.38;6310242;22;44693;-83
2022/05/20 07:55:41;;;;;;;;;12.20;12.20;;;;;19.36;100.00;101380.41;6317308;22;44666;-84
2022/05/20 07:58:11;;;;;;;;;14.00;12.40;;;;;19.11;100.00;101379.16;6318390;22;45504;-85
2022/05/20 08:00:37;;;;;;;;;15.00;12.80;;;;;18.91;100.00;101332.53;6293199;22;45184;-86
2022/05/20 08:03:03;;;;;;;;;15.40;14.00;;;;;18.76;100.00;101350.94;6287855;22;45205;-86
2022/05/20 08:05:31;;;;;;;;;10.25;9.50;;;;;18.75;100.00;101312.38;6314794;22;44829;-84
2022/05/20 08:08:00;;;;;;;;;15.60;10.40;;;;;18.88;100.00;101309.41;6310710;22;45221;-85
2022/05/20 08:10:27;;;;;;;;;15.60;14.60;;;;;19.02;100.00;101312.69;6288686;22;44664;-83
2022/05/20 08:12:53;;;;;;;;;13.00;11.60;;;;;18.93;100.00;101320.59;6310976;22;44741;-84
2022/05/20 08:15:18;;;;;;;;;12.25;10.50;;;;;18.96;100.00;101298.78;6307167;22;44827;-84
2022/05/20 08:17:44;;;;;;;;;14.25;11.00;;;;;19.07;100.00;101302.31;6277545;22;45150;-84
2022/05/20 08:20:25;;;;;;;;;13.25;13.25;;;;;19.14;100.00;101296.19;6305777;22;44744;-85
2022/05/20 08:22:54;;;;;;;;;13.20;12.20;;;;;19.16;100.00;101309.53;6279944;22;45283;-83
2022/05/20 08:25:21;;;;;;;;;12.60;11.20;;;;;19.21;100.00;101294.63;6317453;22;44761;-84
2022/05/20 08:27:47;;;;;;;;;12.20;12.20;;;;;19.26;100.00;101286.13;6318861;22;45068;-82
2022/05/20 08:30:17;;;;;;;;;14.50;13.50;;;;;19.33;100.00;101284.53;6317822;22;44841;-84
2022/05/20 08:32:43;;;;;;;;;11.20;11.20;;;;;19.47;100.00;101294.00;6315396;22;44576;-83
2022/05/20 08:35:10;;;;;;;;;16.50;14.50;;;;;19.60;100.00;101308.03;6284492;22;45211;-84
2022/05/20 08:37:41;;;;;;;;;12.20;11.80;;;;;19.68;100.00;101308.16;6310497;22;45169;-83
2022/05/20 08:40:13;;;;;;;;;13.00;13.00;;;;;19.80;100.00;101319.59;6313902;22;44702;-84
2022/05/20 08:42:40;;;;;;;;;14.20;13.20;;;;;19.75;100.00;101352.38;6287872;22;45176;-81
2022/05/20 08:45:06;;;;;;;;;20.40;20.40;;;;;19.54;100.00;101392.16;6308326;22;44817;-83
2022/05/20 08:47:45;;;;;;;;;15.80;14.00;;;;;19.32;100.00;101425.63;6279368;22;44977;-81
2022/05/20 08:50:16;;;;;;;;;16.20;16.00;;;;;19.18;100.00;101459.22;6286867;22;45270;-84
2022/05/20 08:52:42;;;;;;;;;18.80;15.60;;;;;18.98;100.00;101476.38;6306668;22;45276;-83
2022/05/20 08:55:09;;;;;;;;;15.20;13.60;;;;;19.02;100.00;101356.59;6305091;22;45182;-84
2022/05/20 08:57:35;;;;;;;;;16.80;15.20;;;;;19.19;100.00;101317.31;6305802;22;45324;-84
2022/05/20 09:00:07;;;;;;;;;19.00;17.20;;;;;19.39;100.00;101320.81;6305997;22;45241;-85
2022/05/20 09:02:32;;;;;;;;;20.60;19.60;;;;;19.56;100.00;101332.69;6281608;22;44718;-84
2022/05/20 09:04:58;;;;;;;;;22.50;19.25;;;;;19.71;100.00;101348.28;6311927;22;45239;-84
2022/05/20 09:07:23;;;;;;;;;22.00;19.25;;;;;19.95;100.00;101330.72;6284391;22;45908;-84
2022/05/20 09:09:55;;;;;;;;;17.00;17.00;;;;;20.13;100.00;101342.44;6313847;22;45106;-83
2022/05/20 09:12:31;;;;;;;;;16.80;16.80;;;;;20.12;100.00;101337.19;6287421;22;44717;-85
2022/05/20 09:17:47;;;;;;;;;24.00;22.20;;;;;20.78;100.00;101299.09;6317086;22;45005;-84
2022/05/20 09:20:14;;;;;;;;;21.60;19.80;;;;;21.14;100.00;101296.38;6313410;22;44809;-84
2022/05/20 09:22:40;;;;;;;;;22.40;17.40;;;;;21.40;100.00;101302.66;6312693;22;45325;-83
2022/05/20 09:25:11;;;;;;;;;21.25;19.25;;;;;21.50;100.00;101297.13;6308009;22;45404;-84
2022/05/20 09:27:39;;;;;;;;;18.40;14.40;;;;;21.78;100.00;101285.09;6282395;22;45137;-83
2022/05/20 09:30:05;;;;;;;;;18.60;18.20;;;;;22.00;100.00;101270.16;6285444;22;44674;-84
2022/05/20 09:32:47;;;;;;;;;22.25;20.00;;;;;22.19;100.00;101258.25;6308666;22;45138;-84
2022/05/20 09:35:19;;;;;;;;;28.50;23.75;;;;;22.18;100.00;101259.22;6280282;22;45492;-84
2022/05/20 09:37:47;;;;;;;;;41.25;34.75;;;;;22.19;100.00;101279.88;6321396;22;45259;-83
2022/05/20 09:40:15;;;;;;;;;36.00;33.50;;;;;21.92;100.00;101359.41;6321820;22;45182;-85
2022/05/20 09:42:57;;;;;;;;;30.00;27.50;;;;;21.22;100.00;101442.34;6311630;22;44756;-84
2022/05/20 09:45:22;;;;;;;;;24.00;23.25;;;;;20.70;100.00;101455.66;6284585;22;44769;-84
2022/05/20 09:47:53;;;;;;;;;22.75;21.25;;;;;20.58;100.00;101386.66;6313298;22;45050;-85
2022/05/20 09:50:28;;;;;;;;;23.20;17.00;;;;;20.77;100.00;101198.34;6313273;22;45150;-84
2022/05/20 09:52:58;;;;;;;;;21.80;18.60;;;;;21.24;100.00;101152.03;6280519;22;45260;-86
2022/05/20 09:55:38;;;;;;;;;25.50;21.75;;;;;21.80;100.00;101188.41;6308485;22;44677;-84
2022/05/20 09:58:27;;;;;;;;;26.00;26.00;;;;;22.30;100.00;101235.41;6308735;22;45250;-84
2022/05/20 10:01:06;;;;;;;;;31.40;24.60;;;;;22.51;100.00;101237.63;6287366;22;44725;-85
2022/05/20 10:03:41;;;;;;;;;25.60;22.40;;;;;22.76;100.00;101220.34;6326778;22;45104;-85
2022/05/20 10:06:30;;;;;;;;;28.00;25.50;;;;;23.01;100.00;101198.66;6325363;22;44771;-84
2022/05/20 10:09:07;;;;;;;;;29.75;25.00;;;;;23.46;100.00;101203.47;6296479;22;46643;-85
2022/05/20 10:11:45;;;;;;;;;30.50;28.75;;;;;23.46;100.00;101208.88;6288244;22;44729;-88
2022/05/20 10:14:21;;;;;;;;;34.25;31.00;;;;;23.16;100.00;101218.66;6310699;22;44842;-85
2022/05/20 10:17:09;;;;;;;;;17.50;17.50;;;;;22.87;100.00;101229.13;6311847;22;44776;-85
2022/05/20 10:19:52;;;;;;;;;38.00;32.00;;;;;22.61;100.00;101221.22;6286850;22;46565;-86
2022/05/20 10:22:39;;;;;;;;;25.80;25.80;;;;;22.56;100.00;101221.72;6287888;22;44710;-85
2022/05/20 10:25:23;;;;;;;;;28.50;25.75;;;;;22.74;100.00;101224.25;6314865;22;45530;-87
2022/05/20 10:28:05;;;;;;;;;36.00;29.75;;;;;22.90;100.00;101220.72;6314434;22;44817;-87
2022/05/20 10:33:30;;;;;;;;;36.40;30.20;;;;;23.06;100.00;101235.09;6311420;22;44718;-87
2022/05/20 10:36:25;;;;;;;;;34.50;32.25;;;;;23.17;100.00;101224.91;6310875;22;44653;-85
2022/05/20 10:38:53;;;;;;;;;33.75;32.00;;;;;23.21;100.00;101212.69;6310230;22;45172;-87
2022/05/20 10:41:30;;;;;;;;;33.50;31.50;;;;;23.23;100.00;101211.50;6313289;22;45418;-87
2022/05/20 10:50:32;;;;;;;;;27.00;22.50;;;;;24.30;100.00;101182.81;6168403;23;44735;-87
2022/05/20 10:53:28;;;;;;;;;31.50;28.75;;;;;24.72;100.00;101169.75;6155267;23;45208;-87
2022/05/20 10:56:09;;;;;;;;;34.60;31.60;;;;;25.10;100.00;101157.84;6158249;23;44816;-89
2022/05/20 10:58:57;;;;;;;;;29.00;26.80;;;;;25.38;100.00;101166.16;6166845;23;44787;-88
2022/05/20 11:01:47;;;;;;;;;24.75;24.25;;;;;25.61;100.00;101173.34;6164376;23;44829;-86
2022/05/20 11:04:48;;;;;;;;;30.50;29.00;;;;;25.83;100.00;101180.56;6134765;23;45238;-89
2022/05/20 11:07:31;;;;;;;;;22.00;20.80;;;;;25.89;100.00;101189.84;6131604;23;44726;-89
2022/05/20 11:10:26;;;;;;;;;32.00;29.20;;;;;25.49;100.00;101205.66;6155327;23;44695;-89
2022/05/20 11:13:11;;;;;;;;;32.75;31.50;;;;;25.20;100.00;101211.09;6161333;23;45329;-89
2022/05/20 11:19:17;;;;;;;;;41.75;34.50;;;;;25.04;100.00;101228.38;6165860;23;44650;-88
2022/05/20 11:22:01;;;;;;;;;31.50;29.75;;;;;25.18;100.00;101240.34;6167523;23;44637;-89
2022/05/20 11:24:55;;;;;;;;;34.50;31.75;;;;;25.14;100.00;101248.00;6284713;22;44709;-87
2022/05/20 11:27:34;;;;;;;;;23.00;23.00;;;;;25.06;100.00;101254.38;6322798;22;45432;-89
2022/05/20 11:30:07;;;;;;;;;33.20;30.00;;;;;25.02;100.00;101257.63;6280654;22;45349;-86
2022/05/20 11:32:45;;;;;;;;;31.00;30.25;;;;;24.53;100.00;101263.50;6284033;22;44623;-88
2022/05/20 11:35:47;;;;;;;;;29.00;28.00;;;;;24.46;100.00;101266.06;6313892;22;44707;-88
2022/05/20 11:38:43;;;;;;;;;33.25;30.00;;;;;24.30;100.00;101258.84;6323466;22;45104;-87
2022/05/20 11:41:28;;;;;;;;;32.50;32.00;;;;;24.72;100.00;101248.56;6289714;22;44641;-88
2022/05/20 11:44:08;;;;;;;;;37.25;32.75;;;;;24.73;100.00;101250.25;6313517;22;44587;-87
2022/05/20 11:46:34;;;;;;;;;33.00;30.75;;;;;25.08;100.00;101260.47;6316402;22;44722;-85
2022/05/20 11:49:17;;;;;;;;;25.25;24.00;;;;;25.00;100.00;101243.41;6314349;22;45107;-88
2022/05/20 11:51:57;;;;;;;;;21.00;17.60;;;;;24.87;100.00;101250.28;6284441;22;44882;-89
2022/05/20 11:54:33;;;;;;;;;29.25;28.75;;;;;24.57;100.00;101245.81;6281981;22;44832;-87
2022/05/20 11:57:06;;;;;;;;;28.00;23.50;;;;;24.96;100.00;101233.91;6312416;22;44721;-90
2022/05/20 11:59:50;;;;;;;;;15.80;13.80;;;;;25.31;100.00;101210.63;6290237;22;44980;-88
2022/05/20 12:02:18;;;;;;;;;14.80;13.20;;;;;25.36;100.00;101205.47;6326066;22;45203;-88
2022/05/20 12:04:49;;;;;;;;;12.20;9.20;;;;;25.55;100.00;101209.47;6324820;22;44706;-88
2022/05/20 12:07:19;;;;;;;;;13.80;12.60;;;;;25.39;100.00;101207.81;6290101;22;45191;-89